createdAt,value
2018-11-01T00:02:30.530Z,22.03
2018-11-01T00:07:13.516Z,24.93
2018-11-01T00:11:57.668Z,27.87
2018-11-01T00:16:41.267Z,27.60
2018-11-01T00:21:25.377Z,27.60
2018-11-01T00:26:08.894Z,26.13
2018-11-01T00:30:51.884Z,23.37
2018-11-01T00:35:34.802Z,21.53
2018-11-01T00:40:17.911Z,24.23
2018-11-01T00:45:00.850Z,24.00
2018-11-01T00:49:44.002Z,23.37
2018-11-01T00:54:26.947Z,21.17
2018-11-01T00:59:13.307Z,25.43
2018-11-01T01:03:56.194Z,22.80
2018-11-01T01:08:39.137Z,25.97
2018-11-01T01:13:23.211Z,24.40
2018-11-01T01:18:07.431Z,25.00
2018-11-01T01:22:52.530Z,25.10
2018-11-01T01:27:35.512Z,22.27
2018-11-01T01:32:23.420Z,21.10
2018-11-01T01:37:06.763Z,21.67
2018-11-01T01:41:50.848Z,24.07
2018-11-01T01:46:34.339Z,24.33
2018-11-01T01:51:18.313Z,25.07
2018-11-01T01:56:01.302Z,24.10
2018-11-01T02:00:44.263Z,26.10
2018-11-01T02:05:27.171Z,24.63
2018-11-01T02:10:14.073Z,22.53
2018-11-01T02:14:56.976Z,22.07
2018-11-01T02:19:39.931Z,23.73
2018-11-01T02:24:22.839Z,24.30
2018-11-01T02:29:05.939Z,24.97
2018-11-01T02:33:48.829Z,23.90
2018-11-01T02:38:31.778Z,21.80
2018-11-01T02:43:14.653Z,18.90
2018-11-01T02:47:57.546Z,17.67
2018-11-01T02:52:41.704Z,17.77
2018-11-01T02:57:24.655Z,21.53
2018-11-01T03:02:08.696Z,22.00
2018-11-01T03:06:51.633Z,18.87
2018-11-01T03:11:35.732Z,20.37
2018-11-01T03:16:18.650Z,16.40
2018-11-01T03:21:02.159Z,17.60
2018-11-01T03:25:45.091Z,18.67
2018-11-01T03:30:36.707Z,22.13
2018-11-01T03:35:20.761Z,20.43
2018-11-01T03:40:09.310Z,16.00
2018-11-01T03:44:52.247Z,18.57
2018-11-01T03:49:35.179Z,18.23
2018-11-01T03:54:18.159Z,17.37
2018-11-01T03:59:01.199Z,19.73
2018-11-01T04:03:44.139Z,22.07
2018-11-01T04:08:27.074Z,21.07
2018-11-01T04:13:10.006Z,19.33
2018-11-01T04:17:52.951Z,21.70
2018-11-01T04:22:36.936Z,23.70
2018-11-01T04:27:20.373Z,22.27
2018-11-01T04:32:05.892Z,20.33
2018-11-01T04:36:48.787Z,22.83
2018-11-01T04:41:32.789Z,22.23
2018-11-01T04:46:15.754Z,21.23
2018-11-01T04:51:02.349Z,19.17
2018-11-01T04:55:45.220Z,21.67
2018-11-01T05:00:28.148Z,20.80
2018-11-01T05:05:11.207Z,23.33
2018-11-01T05:09:54.183Z,25.50
2018-11-01T05:14:37.074Z,21.43
2018-11-01T05:19:21.191Z,21.63
2018-11-01T05:24:04.270Z,23.20
2018-11-01T05:28:49.282Z,18.13
2018-11-01T05:33:32.184Z,22.47
2018-11-01T05:38:16.371Z,23.30
2018-11-01T05:42:59.288Z,20.73
2018-11-01T05:47:42.211Z,20.13
2018-11-01T05:52:26.261Z,21.53
2018-11-01T05:57:09.854Z,25.40
2018-11-01T06:01:58.919Z,25.20
2018-11-01T06:06:47.012Z,27.03
2018-11-01T06:11:31.155Z,23.93
2018-11-01T06:16:14.088Z,23.00
2018-11-01T06:20:57.270Z,25.23
2018-11-01T06:25:40.373Z,26.73
2018-11-01T06:30:24.462Z,24.10
2018-11-01T06:35:15.766Z,23.83
2018-11-01T06:39:58.866Z,23.27
2018-11-01T06:44:41.780Z,22.93
2018-11-01T06:49:24.689Z,26.90
2018-11-01T06:54:07.569Z,23.77
2018-11-01T06:58:50.719Z,25.80
2018-11-01T07:03:33.564Z,24.10
2018-11-01T07:08:16.758Z,21.57
2018-11-01T07:12:59.618Z,24.40
2018-11-01T07:17:42.723Z,23.20
2018-11-01T07:22:27.614Z,22.00
2018-11-01T07:27:10.515Z,23.37
2018-11-01T07:31:54.616Z,21.03
2018-11-01T07:36:37.588Z,22.93
2018-11-01T07:41:22.564Z,20.10
2018-11-01T07:46:05.529Z,20.97
2018-11-01T07:50:48.531Z,23.07
2018-11-01T07:55:31.452Z,21.67
2018-11-01T08:00:15.990Z,22.90
2018-11-01T08:04:58.895Z,20.83
2018-11-01T08:09:41.878Z,20.90
2018-11-01T08:14:24.802Z,19.97
2018-11-01T08:19:08.918Z,23.50
2018-11-01T08:23:51.795Z,20.50
2018-11-01T08:28:35.769Z,19.90
2018-11-01T08:33:18.694Z,21.57
2018-11-01T08:38:02.746Z,20.40
2018-11-01T08:42:45.629Z,21.57
2018-11-01T08:47:28.521Z,23.00
2018-11-01T08:52:12.398Z,20.43
2018-11-01T08:56:55.307Z,23.67
2018-11-01T09:01:39.338Z,20.70
2018-11-01T09:06:22.199Z,19.33
2018-11-01T09:11:05.363Z,21.20
2018-11-01T09:15:48.269Z,20.50
2018-11-01T09:20:31.255Z,20.33
2018-11-01T09:25:14.166Z,24.17
2018-11-01T09:29:59.066Z,20.40
2018-11-01T09:36:11.331Z,28.27
2018-11-01T09:40:54.429Z,49.73
2018-11-01T09:45:37.339Z,46.10
2018-11-01T09:50:20.435Z,27.07
2018-11-01T09:55:03.447Z,21.87
2018-11-01T09:59:47.486Z,21.67
2018-11-01T10:04:30.436Z,21.80
2018-11-01T10:09:13.510Z,24.20
2018-11-01T10:13:56.405Z,45.40
2018-11-01T10:18:40.492Z,25.00
2018-11-01T10:23:23.394Z,40.13
2018-11-01T10:28:06.733Z,61.10
2018-11-01T10:32:49.643Z,34.53
2018-11-01T10:37:33.515Z,46.20
2018-11-01T10:42:16.409Z,24.90
2018-11-01T10:46:59.324Z,22.80
2018-11-01T10:51:44.367Z,24.20
2018-11-01T10:56:27.234Z,23.00
2018-11-01T11:01:19.353Z,21.03
2018-11-01T11:06:02.239Z,22.37
2018-11-01T11:10:45.346Z,22.53
2018-11-01T11:15:28.234Z,31.63
2018-11-01T11:20:12.183Z,26.33
2018-11-01T11:24:54.954Z,22.77
2018-11-01T11:29:39.913Z,26.90
2018-11-01T11:34:22.832Z,27.70
2018-11-01T11:39:11.561Z,30.63
2018-11-01T11:43:54.829Z,29.23
2018-11-01T11:48:37.884Z,28.90
2018-11-01T11:53:20.789Z,27.50
2018-11-01T11:58:07.191Z,27.50
2018-11-01T12:02:50.094Z,32.97
2018-11-01T12:07:37.229Z,31.77
2018-11-01T12:12:20.090Z,26.13
2018-11-01T12:17:03.583Z,25.37
2018-11-01T12:21:46.478Z,23.90
2018-11-01T12:26:29.400Z,23.40
2018-11-01T12:31:17.887Z,22.70
2018-11-01T12:36:00.786Z,22.07
2018-11-01T12:40:49.252Z,21.20
2018-11-01T12:45:32.110Z,21.67
2018-11-01T12:50:15.096Z,22.57
2018-11-01T12:54:57.885Z,19.63
2018-11-01T12:59:40.834Z,21.57
2018-11-01T13:04:23.723Z,21.40
2018-11-01T13:09:10.843Z,23.20
2018-11-01T13:13:53.963Z,21.93
2018-11-01T13:18:38.272Z,21.87
2018-11-01T13:23:21.563Z,24.20
2018-11-01T13:28:06.926Z,25.07
2018-11-01T13:32:49.811Z,22.43
2018-11-01T13:37:33.852Z,23.43
2018-11-01T13:42:16.744Z,24.97
2018-11-01T13:47:00.751Z,25.47
2018-11-01T13:51:43.660Z,21.17
2018-11-01T13:56:26.691Z,20.67
2018-11-01T14:01:10.583Z,19.10
2018-11-01T14:05:53.893Z,19.60
2018-11-01T14:10:36.883Z,18.73
2018-11-01T14:15:21.011Z,19.70
2018-11-01T14:20:05.867Z,16.50
2018-11-01T14:24:48.799Z,19.73
2018-11-01T14:29:35.113Z,21.03
2018-11-01T14:34:18.012Z,21.13
2018-11-01T14:39:04.302Z,20.63
2018-11-01T14:43:47.140Z,24.97
2018-11-01T14:48:30.174Z,21.67
2018-11-01T14:53:13.701Z,21.83
2018-11-01T14:57:58.261Z,20.80
2018-11-01T15:04:09.270Z,22.20
2018-11-01T15:08:53.347Z,23.77
2018-11-01T15:13:36.222Z,21.43
2018-11-01T15:18:19.412Z,22.77
2018-11-01T15:23:02.334Z,23.73
2018-11-01T15:27:47.393Z,24.83
2018-11-01T15:32:30.300Z,23.93
2018-11-01T15:37:16.554Z,27.13
2018-11-01T15:41:59.478Z,25.63
2018-11-01T15:46:43.544Z,22.60
2018-11-01T15:51:26.447Z,23.17
2018-11-01T15:56:09.338Z,22.93
2018-11-01T16:00:55.451Z,23.53
2018-11-01T16:05:38.369Z,25.97
2018-11-01T16:10:21.307Z,22.90
2018-11-01T16:15:05.624Z,26.40
2018-11-01T16:19:49.762Z,22.43
2018-11-01T16:24:32.522Z,21.70
2018-11-01T16:29:16.424Z,21.90
2018-11-01T16:33:59.327Z,23.63
2018-11-01T16:38:45.270Z,24.43
2018-11-01T16:43:28.257Z,27.70
2018-11-01T16:48:11.438Z,21.87
2018-11-01T16:52:54.734Z,23.17
2018-11-01T16:57:38.670Z,24.17
2018-11-01T17:02:21.528Z,22.73
2018-11-01T17:07:07.082Z,22.83
2018-11-01T17:11:50.014Z,22.87
2018-11-01T17:16:35.669Z,23.40
2018-11-01T17:21:18.604Z,23.33
2018-11-01T17:26:02.044Z,20.30
2018-11-01T17:30:46.998Z,25.60
2018-11-01T17:35:29.885Z,22.43
2018-11-01T17:40:14.898Z,23.43
2018-11-01T17:44:57.749Z,20.43
2018-11-01T17:49:40.802Z,21.53
2018-11-01T17:54:23.752Z,22.60
2018-11-01T17:59:10.182Z,22.93
2018-11-01T18:03:53.084Z,25.53
2018-11-01T18:08:36.280Z,22.70
2018-11-01T18:13:19.148Z,23.43
2018-11-01T18:18:02.208Z,24.90
2018-11-01T18:22:45.245Z,23.87
2018-11-01T18:27:29.274Z,22.17
2018-11-01T18:33:41.571Z,21.50
2018-11-01T18:38:27.947Z,21.83
2018-11-01T18:43:10.839Z,24.73
2018-11-01T18:47:54.120Z,22.87
2018-11-01T18:52:37.047Z,22.90
2018-11-01T18:57:22.016Z,23.40
2018-11-01T19:02:05.005Z,22.43
2018-11-01T19:06:51.592Z,23.60
2018-11-01T19:11:34.525Z,22.80
2018-11-01T19:16:20.982Z,23.57
2018-11-01T19:21:03.928Z,22.60
2018-11-01T19:25:46.884Z,23.10
2018-11-01T19:30:29.911Z,21.73
2018-11-01T19:35:13.707Z,21.70
2018-11-01T19:39:57.155Z,26.37
2018-11-01T19:44:40.235Z,23.53
2018-11-01T19:49:23.481Z,21.67
2018-11-01T19:54:06.434Z,17.33
2018-11-01T19:58:49.522Z,18.23
2018-11-01T20:03:33.305Z,16.97
2018-11-01T20:08:16.385Z,16.83
2018-11-01T20:12:59.256Z,15.70
2018-11-01T20:17:42.344Z,16.67
2018-11-01T20:22:25.273Z,17.17
2018-11-01T20:27:09.766Z,15.50
2018-11-01T20:31:52.769Z,14.63
2018-11-01T20:36:37.710Z,16.20
2018-11-01T20:41:20.703Z,15.73
2018-11-01T20:46:03.672Z,13.50
2018-11-01T20:50:46.622Z,15.03
2018-11-01T20:55:29.491Z,15.13
2018-11-01T21:00:14.805Z,15.13
2018-11-01T21:04:57.770Z,14.67
2018-11-01T21:09:40.719Z,14.20
2018-11-01T21:14:23.606Z,13.73
2018-11-01T21:19:08.806Z,13.33
2018-11-01T21:23:51.701Z,12.83
2018-11-01T21:28:38.461Z,12.73
2018-11-01T21:33:21.370Z,13.47
2018-11-01T21:38:08.218Z,13.93
2018-11-01T21:42:51.119Z,14.00
2018-11-01T21:47:34.269Z,12.00
2018-11-01T21:52:17.120Z,13.90
2018-11-01T21:57:01.076Z,11.87
2018-11-01T22:01:43.979Z,11.33
2018-11-01T22:06:28.072Z,12.87
2018-11-01T22:11:11.066Z,11.13
2018-11-01T22:15:54.103Z,10.17
2018-11-01T22:20:37.042Z,11.97
2018-11-01T22:25:19.988Z,10.53
2018-11-01T22:30:05.489Z,10.90
2018-11-01T22:34:48.414Z,10.97
2018-11-01T22:39:32.356Z,11.00
2018-11-01T22:44:15.193Z,10.63
2018-11-01T22:48:59.089Z,10.13
2018-11-01T22:53:42.080Z,11.03
2018-11-01T22:58:27.189Z,8.93
2018-11-01T23:03:10.090Z,9.53
2018-11-01T23:07:53.986Z,8.90
2018-11-01T23:12:37.294Z,8.00
2018-11-01T23:17:23.885Z,9.20
2018-11-01T23:22:07.092Z,8.90
2018-11-01T23:26:53.822Z,10.03
2018-11-01T23:31:37.140Z,9.00
2018-11-01T23:36:19.959Z,9.40
2018-11-01T23:41:08.401Z,9.10
2018-11-01T23:46:00.811Z,8.93
2018-11-01T23:50:51.438Z,8.83
2018-11-01T23:55:36.349Z,8.80
